sensor_id;sensor_type;location;lat;lon;timestamp;temperature;humidity
34829;DHT22;21042;47.620;12.188;2024-02-16T00:02:00;5.30;99.90
34829;DHT22;21042;47.620;12.188;2024-02-16T00:04:27;5.20;99.90
34829;DHT22;21042;47.620;12.188;2024-02-16T00:06:54;5.20;99.90
34829;DHT22;21042;47.620;12.188;2024-02-16T00:09:21;5.20;99.90
34829;DHT22;21042;47.620;12.188;2024-02-16T00:11:48;5.20;99.90
34829;DHT22;21042;47.620;12.188;2024-02-16T00:14:17;5.10;99.90
34829;DHT22;21042;47.620;12.188;2024-02-16T00:16:43;5.20;99.90
34829;DHT22;21042;47.620;12.188;2024-02-16T00:19:10;5.20;99.90
34829;DHT22;21042;47.620;12.188;2024-02-16T00:21:37;5.10;99.90
34829;DHT22;21042;47.620;12.188;2024-02-16T00:24:06;5.10;99.90
34829;DHT22;21042;47.620;12.188;2024-02-16T00:26:34;5.20;99.90
34829;DHT22;21042;47.620;12.188;2024-02-16T00:29:00;5.20;99.90
34829;DHT22;21042;47.620;12.188;2024-02-16T00:31:27;5.20;99.90
34829;DHT22;21042;47.620;12.188;2024-02-16T00:33:54;5.10;99.90
34829;DHT22;21042;47.620;12.188;2024-02-16T00:36:21;5.10;99.90
34829;DHT22;21042;47.620;12.188;2024-02-16T00:38:47;5.10;99.90
34829;DHT22;21042;47.620;12.188;2024-02-16T00:41:21;5.00;99.90
34829;DHT22;21042;47.620;12.188;2024-02-16T00:43:48;5.00;99.90
34829;DHT22;21042;47.620;12.188;2024-02-16T00:46:15;5.00;99.90
34829;DHT22;21042;47.620;12.188;2024-02-16T00:48:41;5.00;99.90
34829;DHT22;21042;47.620;12.188;2024-02-16T00:51:08;5.00;99.90
34829;DHT22;21042;47.620;12.188;2024-02-16T00:53:35;5.00;99.90
34829;DHT22;21042;47.620;12.188;2024-02-16T00:56:02;5.00;99.90
34829;DHT22;21042;47.620;12.188;2024-02-16T00:58:29;5.00;99.90
34829;DHT22;21042;47.620;12.188;2024-02-16T01:00:56;5.00;99.90
34829;DHT22;21042;47.620;12.188;2024-02-16T01:03:22;5.00;99.90
34829;DHT22;21042;47.620;12.188;2024-02-16T01:05:49;5.00;99.90
34829;DHT22;21042;47.620;12.188;2024-02-16T01:08:16;5.00;99.90
34829;DHT22;21042;47.620;12.188;2024-02-16T01:10:43;4.90;99.90
34829;DHT22;21042;47.620;12.188;2024-02-16T01:13:10;4.90;99.90
34829;DHT22;21042;47.620;12.188;2024-02-16T01:15:36;4.90;99.90
34829;DHT22;21042;47.620;12.188;2024-02-16T01:18:04;4.90;99.90
34829;DHT22;21042;47.620;12.188;2024-02-16T01:20:31;4.90;99.90
34829;DHT22;21042;47.620;12.188;2024-02-16T01:22:58;4.90;99.90
34829;DHT22;21042;47.620;12.188;2024-02-16T01:25:25;4.90;99.90
34829;DHT22;21042;47.620;12.188;2024-02-16T01:27:51;4.80;99.90
34829;DHT22;21042;47.620;12.188;2024-02-16T01:30:18;4.80;99.90
34829;DHT22;21042;47.620;12.188;2024-02-16T01:32:46;4.80;99.90
34829;DHT22;21042;47.620;12.188;2024-02-16T01:35:13;4.70;99.90
34829;DHT22;21042;47.620;12.188;2024-02-16T01:37:43;4.70;99.90
34829;DHT22;21042;47.620;12.188;2024-02-16T01:40:10;4.70;99.90
34829;DHT22;21042;47.620;12.188;2024-02-16T01:42:44;4.60;99.90
34829;DHT22;21042;47.620;12.188;2024-02-16T01:45:10;4.60;99.90
34829;DHT22;21042;47.620;12.188;2024-02-16T01:47:41;4.50;99.90
34829;DHT22;21042;47.620;12.188;2024-02-16T01:50:09;4.60;99.90
34829;DHT22;21042;47.620;12.188;2024-02-16T01:52:36;4.50;99.90
34829;DHT22;21042;47.620;12.188;2024-02-16T01:55:04;4.50;99.90
34829;DHT22;21042;47.620;12.188;2024-02-16T01:57:31;4.40;99.90
34829;DHT22;21042;47.620;12.188;2024-02-16T01:59:58;4.50;99.90
34829;DHT22;21042;47.620;12.188;2024-02-16T02:02:26;4.50;99.90
34829;DHT22;21042;47.620;12.188;2024-02-16T02:04:53;4.50;99.90
34829;DHT22;21042;47.620;12.188;2024-02-16T02:07:24;4.50;99.90
34829;DHT22;21042;47.620;12.188;2024-02-16T02:09:51;4.80;99.90
34829;DHT22;21042;47.620;12.188;2024-02-16T02:12:17;4.50;99.90
34829;DHT22;21042;47.620;12.188;2024-02-16T02:14:44;4.50;99.90
34829;DHT22;21042;47.620;12.188;2024-02-16T02:17:13;4.40;99.90
34829;DHT22;21042;47.620;12.188;2024-02-16T02:19:39;4.40;99.90
34829;DHT22;21042;47.620;12.188;2024-02-16T02:22:14;4.40;99.90
34829;DHT22;21042;47.620;12.188;2024-02-16T02:24:41;4.30;99.90
34829;DHT22;21042;47.620;12.188;2024-02-16T02:27:08;4.40;99.90
34829;DHT22;21042;47.620;12.188;2024-02-16T02:29:34;4.40;99.90
34829;DHT22;21042;47.620;12.188;2024-02-16T02:32:01;4.40;99.90
34829;DHT22;21042;47.620;12.188;2024-02-16T02:34:28;4.30;99.90
34829;DHT22;21042;47.620;12.188;2024-02-16T02:36:55;4.40;99.90
34829;DHT22;21042;47.620;12.188;2024-02-16T02:39:21;4.30;99.90
34829;DHT22;21042;47.620;12.188;2024-02-16T02:41:48;4.30;99.90
34829;DHT22;21042;47.620;12.188;2024-02-16T02:44:15;4.30;99.90
34829;DHT22;21042;47.620;12.188;2024-02-16T02:46:41;4.20;99.90
34829;DHT22;21042;47.620;12.188;2024-02-16T02:49:08;4.20;99.90
34829;DHT22;21042;47.620;12.188;2024-02-16T02:51:35;4.20;99.90
34829;DHT22;21042;47.620;12.188;2024-02-16T02:54:02;4.20;99.90
34829;DHT22;21042;47.620;12.188;2024-02-16T02:56:29;4.30;99.90
34829;DHT22;21042;47.620;12.188;2024-02-16T02:58:55;4.20;99.90
34829;DHT22;21042;47.620;12.188;2024-02-16T03:01:22;4.20;99.90
34829;DHT22;21042;47.620;12.188;2024-02-16T03:03:49;4.20;99.90
34829;DHT22;21042;47.620;12.188;2024-02-16T03:06:19;4.20;99.90
34829;DHT22;21042;47.620;12.188;2024-02-16T03:08:46;4.20;99.90
34829;DHT22;21042;47.620;12.188;2024-02-16T03:11:13;4.10;99.90
34829;DHT22;21042;47.620;12.188;2024-02-16T03:13:40;4.10;99.90
34829;DHT22;21042;47.620;12.188;2024-02-16T03:16:06;4.10;99.90
34829;DHT22;21042;47.620;12.188;2024-02-16T03:18:33;4.10;99.90
34829;DHT22;21042;47.620;12.188;2024-02-16T03:21:01;4.10;99.90
34829;DHT22;21042;47.620;12.188;2024-02-16T03:23:28;4.10;99.90
34829;DHT22;21042;47.620;12.188;2024-02-16T03:25:54;4.20;99.90
34829;DHT22;21042;47.620;12.188;2024-02-16T03:28:21;4.20;99.90
34829;DHT22;21042;47.620;12.188;2024-02-16T03:30:48;4.20;99.90
34829;DHT22;21042;47.620;12.188;2024-02-16T03:33:15;4.20;99.90
34829;DHT22;21042;47.620;12.188;2024-02-16T03:35:42;4.20;99.90
34829;DHT22;21042;47.620;12.188;2024-02-16T03:38:08;4.20;99.90
34829;DHT22;21042;47.620;12.188;2024-02-16T03:40:35;4.10;99.90
34829;DHT22;21042;47.620;12.188;2024-02-16T03:43:02;4.10;99.90
34829;DHT22;21042;47.620;12.188;2024-02-16T03:45:29;4.00;99.90
34829;DHT22;21042;47.620;12.188;2024-02-16T03:47:55;4.00;99.90
34829;DHT22;21042;47.620;12.188;2024-02-16T03:50:22;4.00;99.90
34829;DHT22;21042;47.620;12.188;2024-02-16T03:52:49;3.90;99.90
34829;DHT22;21042;47.620;12.188;2024-02-16T03:55:16;3.80;99.90
34829;DHT22;21042;47.620;12.188;2024-02-16T03:57:43;3.80;99.90
34829;DHT22;21042;47.620;12.188;2024-02-16T04:00:09;3.70;99.90
34829;DHT22;21042;47.620;12.188;2024-02-16T04:02:39;3.60;99.90
34829;DHT22;21042;47.620;12.188;2024-02-16T04:05:06;3.60;99.90
34829;DHT22;21042;47.620;12.188;2024-02-16T04:07:34;3.60;99.90
34829;DHT22;21042;47.620;12.188;2024-02-16T04:10:01;3.60;99.90
34829;DHT22;21042;47.620;12.188;2024-02-16T04:12:28;3.60;99.90
34829;DHT22;21042;47.620;12.188;2024-02-16T04:14:55;3.60;99.90
34829;DHT22;21042;47.620;12.188;2024-02-16T04:17:22;3.50;99.90
34829;DHT22;21042;47.620;12.188;2024-02-16T04:19:48;3.50;99.90
34829;DHT22;21042;47.620;12.188;2024-02-16T04:22:15;3.50;99.90
34829;DHT22;21042;47.620;12.188;2024-02-16T04:24:42;3.50;99.90
34829;DHT22;21042;47.620;12.188;2024-02-16T04:27:09;3.50;99.90
34829;DHT22;21042;47.620;12.188;2024-02-16T04:29:36;3.50;99.90
34829;DHT22;21042;47.620;12.188;2024-02-16T04:32:02;3.50;99.90
34829;DHT22;21042;47.620;12.188;2024-02-16T04:34:29;3.50;99.90
34829;DHT22;21042;47.620;12.188;2024-02-16T04:36:56;3.60;99.90
34829;DHT22;21042;47.620;12.188;2024-02-16T04:39:23;3.60;99.90
34829;DHT22;21042;47.620;12.188;2024-02-16T04:41:50;3.60;99.90
34829;DHT22;21042;47.620;12.188;2024-02-16T04:44:18;3.60;99.90
34829;DHT22;21042;47.620;12.188;2024-02-16T04:46:45;3.60;99.90
34829;DHT22;21042;47.620;12.188;2024-02-16T04:49:12;3.60;99.90
34829;DHT22;21042;47.620;12.188;2024-02-16T04:51:39;3.60;99.90
34829;DHT22;21042;47.620;12.188;2024-02-16T04:54:07;3.50;99.90
34829;DHT22;21042;47.620;12.188;2024-02-16T04:56:34;3.40;99.90
34829;DHT22;21042;47.620;12.188;2024-02-16T04:59:01;3.40;99.90
34829;DHT22;21042;47.620;12.188;2024-02-16T05:01:28;3.40;99.90
34829;DHT22;21042;47.620;12.188;2024-02-16T05:03:56;3.40;99.90
34829;DHT22;21042;47.620;12.188;2024-02-16T05:06:24;3.40;99.90
34829;DHT22;21042;47.620;12.188;2024-02-16T05:08:51;3.40;99.90
34829;DHT22;21042;47.620;12.188;2024-02-16T05:11:18;3.40;99.90
34829;DHT22;21042;47.620;12.188;2024-02-16T05:13:45;3.30;99.90
34829;DHT22;21042;47.620;12.188;2024-02-16T05:16:12;3.20;99.90
34829;DHT22;21042;47.620;12.188;2024-02-16T05:18:39;3.30;99.90
34829;DHT22;21042;47.620;12.188;2024-02-16T05:21:07;3.30;99.90
34829;DHT22;21042;47.620;12.188;2024-02-16T05:23:34;3.30;99.90
34829;DHT22;21042;47.620;12.188;2024-02-16T05:26:00;3.30;99.90
34829;DHT22;21042;47.620;12.188;2024-02-16T05:28:27;3.30;99.90
34829;DHT22;21042;47.620;12.188;2024-02-16T05:30:54;3.30;99.90
34829;DHT22;21042;47.620;12.188;2024-02-16T05:33:22;3.30;99.90
34829;DHT22;21042;47.620;12.188;2024-02-16T05:35:49;3.30;99.90
34829;DHT22;21042;47.620;12.188;2024-02-16T05:38:22;3.30;99.90
34829;DHT22;21042;47.620;12.188;2024-02-16T05:40:59;3.40;99.90
34829;DHT22;21042;47.620;12.188;2024-02-16T05:43:26;3.40;99.90
34829;DHT22;21042;47.620;12.188;2024-02-16T05:45:53;3.40;99.90
34829;DHT22;21042;47.620;12.188;2024-02-16T05:48:20;3.40;99.90
34829;DHT22;21042;47.620;12.188;2024-02-16T05:50:48;3.40;99.90
34829;DHT22;21042;47.620;12.188;2024-02-16T05:53:15;3.30;99.90
34829;DHT22;21042;47.620;12.188;2024-02-16T05:55:42;3.30;99.90
34829;DHT22;21042;47.620;12.188;2024-02-16T05:58:10;3.30;99.90
34829;DHT22;21042;47.620;12.188;2024-02-16T06:00:39;3.30;99.90
34829;DHT22;21042;47.620;12.188;2024-02-16T06:03:05;3.20;99.90
34829;DHT22;21042;47.620;12.188;2024-02-16T06:05:34;3.10;99.90
34829;DHT22;21042;47.620;12.188;2024-02-16T06:08:00;2.90;99.90
34829;DHT22;21042;47.620;12.188;2024-02-16T06:10:27;2.90;99.90
34829;DHT22;21042;47.620;12.188;2024-02-16T06:12:54;2.90;99.90
34829;DHT22;21042;47.620;12.188;2024-02-16T06:15:21;2.80;99.90
34829;DHT22;21042;47.620;12.188;2024-02-16T06:20:39;2.70;99.90
34829;DHT22;21042;47.620;12.188;2024-02-16T06:23:06;2.70;99.90
34829;DHT22;21042;47.620;12.188;2024-02-16T06:25:32;2.70;99.90
34829;DHT22;21042;47.620;12.188;2024-02-16T06:27:59;2.60;99.90
34829;DHT22;21042;47.620;12.188;2024-02-16T06:30:26;2.60;99.90
34829;DHT22;21042;47.620;12.188;2024-02-16T06:32:53;2.50;99.90
34829;DHT22;21042;47.620;12.188;2024-02-16T06:35:21;2.40;99.90
34829;DHT22;21042;47.620;12.188;2024-02-16T06:37:48;2.50;99.90
34829;DHT22;21042;47.620;12.188;2024-02-16T06:40:14;2.40;99.90
34829;DHT22;21042;47.620;12.188;2024-02-16T06:42:41;2.50;99.90
34829;DHT22;21042;47.620;12.188;2024-02-16T06:45:08;2.40;99.90
34829;DHT22;21042;47.620;12.188;2024-02-16T06:47:35;2.40;99.90
34829;DHT22;21042;47.620;12.188;2024-02-16T06:50:02;2.50;99.90
34829;DHT22;21042;47.620;12.188;2024-02-16T06:52:28;2.50;99.90
34829;DHT22;21042;47.620;12.188;2024-02-16T06:54:56;2.60;99.90
34829;DHT22;21042;47.620;12.188;2024-02-16T06:57:22;2.60;99.90
34829;DHT22;21042;47.620;12.188;2024-02-16T06:59:52;2.60;99.90
34829;DHT22;21042;47.620;12.188;2024-02-16T07:02:20;2.70;99.90
34829;DHT22;21042;47.620;12.188;2024-02-16T07:04:46;2.80;99.90
34829;DHT22;21042;47.620;12.188;2024-02-16T07:07:14;2.80;99.90
34829;DHT22;21042;47.620;12.188;2024-02-16T07:09:41;2.80;99.90
34829;DHT22;21042;47.620;12.188;2024-02-16T07:12:08;2.90;99.90
34829;DHT22;21042;47.620;12.188;2024-02-16T07:14:35;3.00;99.90
34829;DHT22;21042;47.620;12.188;2024-02-16T07:17:02;3.00;99.90
34829;DHT22;21042;47.620;12.188;2024-02-16T07:19:29;2.90;99.90
34829;DHT22;21042;47.620;12.188;2024-02-16T07:21:55;3.00;99.90
34829;DHT22;21042;47.620;12.188;2024-02-16T07:24:22;3.00;99.90
34829;DHT22;21042;47.620;12.188;2024-02-16T07:26:49;3.10;99.90
34829;DHT22;21042;47.620;12.188;2024-02-16T07:29:16;3.10;99.90
34829;DHT22;21042;47.620;12.188;2024-02-16T07:31:43;3.20;99.90
34829;DHT22;21042;47.620;12.188;2024-02-16T07:34:10;3.20;99.90
34829;DHT22;21042;47.620;12.188;2024-02-16T07:36:38;3.30;99.90
34829;DHT22;21042;47.620;12.188;2024-02-16T07:39:05;3.30;99.90
34829;DHT22;21042;47.620;12.188;2024-02-16T07:41:32;3.40;99.90
34829;DHT22;21042;47.620;12.188;2024-02-16T07:43:58;3.50;99.90
34829;DHT22;21042;47.620;12.188;2024-02-16T07:46:25;3.70;99.90
34829;DHT22;21042;47.620;12.188;2024-02-16T07:48:52;3.90;99.90
34829;DHT22;21042;47.620;12.188;2024-02-16T07:51:19;4.10;99.90
34829;DHT22;21042;47.620;12.188;2024-02-16T07:53:45;4.10;99.90
34829;DHT22;21042;47.620;12.188;2024-02-16T07:56:13;3.90;99.90
34829;DHT22;21042;47.620;12.188;2024-02-16T07:58:42;3.90;99.90
34829;DHT22;21042;47.620;12.188;2024-02-16T08:01:11;4.00;99.90
34829;DHT22;21042;47.620;12.188;2024-02-16T08:03:40;4.00;99.90
34829;DHT22;21042;47.620;12.188;2024-02-16T08:06:07;4.10;99.90
34829;DHT22;21042;47.620;12.188;2024-02-16T08:08:34;4.20;99.90
34829;DHT22;21042;47.620;12.188;2024-02-16T08:11:00;4.30;99.90
34829;DHT22;21042;47.620;12.188;2024-02-16T08:13:27;4.40;99.90
34829;DHT22;21042;47.620;12.188;2024-02-16T08:15:54;4.60;99.90
34829;DHT22;21042;47.620;12.188;2024-02-16T08:18:21;4.90;99.90
34829;DHT22;21042;47.620;12.188;2024-02-16T08:20:48;5.10;99.90
34829;DHT22;21042;47.620;12.188;2024-02-16T08:23:16;5.40;99.90
34829;DHT22;21042;47.620;12.188;2024-02-16T08:25:42;5.70;99.90
34829;DHT22;21042;47.620;12.188;2024-02-16T08:28:09;6.00;99.90
34829;DHT22;21042;47.620;12.188;2024-02-16T08:30:36;6.30;99.90
34829;DHT22;21042;47.620;12.188;2024-02-16T08:33:07;6.50;99.90
34829;DHT22;21042;47.620;12.188;2024-02-16T08:35:34;6.70;99.90
34829;DHT22;21042;47.620;12.188;2024-02-16T08:38:01;7.00;99.90
34829;DHT22;21042;47.620;12.188;2024-02-16T08:40:28;7.30;99.90
34829;DHT22;21042;47.620;12.188;2024-02-16T08:42:55;7.70;99.90
34829;DHT22;21042;47.620;12.188;2024-02-16T08:45:22;8.00;99.90
34829;DHT22;21042;47.620;12.188;2024-02-16T08:47:48;8.20;99.90
34829;DHT22;21042;47.620;12.188;2024-02-16T08:50:18;8.60;99.90
34829;DHT22;21042;47.620;12.188;2024-02-16T08:52:45;8.70;99.90
34829;DHT22;21042;47.620;12.188;2024-02-16T08:55:12;8.90;99.90
34829;DHT22;21042;47.620;12.188;2024-02-16T08:57:39;9.00;99.90
34829;DHT22;21042;47.620;12.188;2024-02-16T09:00:06;8.90;99.90
34829;DHT22;21042;47.620;12.188;2024-02-16T09:02:33;8.80;99.90
34829;DHT22;21042;47.620;12.188;2024-02-16T09:05:00;8.70;99.90
34829;DHT22;21042;47.620;12.188;2024-02-16T09:07:27;8.60;99.90
34829;DHT22;21042;47.620;12.188;2024-02-16T09:09:54;8.70;99.90
34829;DHT22;21042;47.620;12.188;2024-02-16T09:12:20;8.60;99.90
34829;DHT22;21042;47.620;12.188;2024-02-16T09:14:47;8.50;99.90
34829;DHT22;21042;47.620;12.188;2024-02-16T09:17:14;8.50;99.90
34829;DHT22;21042;47.620;12.188;2024-02-16T09:19:41;8.60;99.90
34829;DHT22;21042;47.620;12.188;2024-02-16T09:22:07;8.80;99.90
34829;DHT22;21042;47.620;12.188;2024-02-16T09:24:34;9.00;99.90
34829;DHT22;21042;47.620;12.188;2024-02-16T09:27:01;9.10;99.90
34829;DHT22;21042;47.620;12.188;2024-02-16T09:29:30;9.00;99.90
34829;DHT22;21042;47.620;12.188;2024-02-16T09:31:57;8.90;99.90
34829;DHT22;21042;47.620;12.188;2024-02-16T09:34:24;8.70;99.90
34829;DHT22;21042;47.620;12.188;2024-02-16T09:36:51;8.60;99.90
34829;DHT22;21042;47.620;12.188;2024-02-16T09:39:17;8.50;99.90
34829;DHT22;21042;47.620;12.188;2024-02-16T09:41:44;8.50;99.90
34829;DHT22;21042;47.620;12.188;2024-02-16T09:44:14;8.50;99.90
34829;DHT22;21042;47.620;12.188;2024-02-16T09:46:41;8.40;99.90
34829;DHT22;21042;47.620;12.188;2024-02-16T09:49:07;8.50;99.90
34829;DHT22;21042;47.620;12.188;2024-02-16T09:51:37;8.80;99.90
34829;DHT22;21042;47.620;12.188;2024-02-16T09:54:04;8.90;99.90
34829;DHT22;21042;47.620;12.188;2024-02-16T09:56:31;9.10;99.90
34829;DHT22;21042;47.620;12.188;2024-02-16T09:58:58;9.30;99.90
34829;DHT22;21042;47.620;12.188;2024-02-16T10:01:25;9.50;99.90
34829;DHT22;21042;47.620;12.188;2024-02-16T10:03:52;9.60;99.90
34829;DHT22;21042;47.620;12.188;2024-02-16T10:06:19;9.70;99.90
34829;DHT22;21042;47.620;12.188;2024-02-16T10:08:53;9.80;99.90
34829;DHT22;21042;47.620;12.188;2024-02-16T10:11:21;10.00;99.90
34829;DHT22;21042;47.620;12.188;2024-02-16T10:13:58;10.10;99.90
34829;DHT22;21042;47.620;12.188;2024-02-16T10:16:25;10.20;99.90
34829;DHT22;21042;47.620;12.188;2024-02-16T10:18:54;10.30;99.90
34829;DHT22;21042;47.620;12.188;2024-02-16T10:21:27;10.40;99.90
34829;DHT22;21042;47.620;12.188;2024-02-16T10:23:56;10.50;99.90
34829;DHT22;21042;47.620;12.188;2024-02-16T10:26:23;10.50;99.90
34829;DHT22;21042;47.620;12.188;2024-02-16T10:28:50;10.60;99.90
34829;DHT22;21042;47.620;12.188;2024-02-16T10:31:22;10.60;99.90
34829;DHT22;21042;47.620;12.188;2024-02-16T10:33:58;10.70;99.90
34829;DHT22;21042;47.620;12.188;2024-02-16T10:36:25;10.70;99.90
34829;DHT22;21042;47.620;12.188;2024-02-16T10:38:55;10.80;99.90
34829;DHT22;21042;47.620;12.188;2024-02-16T10:41:26;10.90;99.90
34829;DHT22;21042;47.620;12.188;2024-02-16T10:43:54;11.00;99.90
34829;DHT22;21042;47.620;12.188;2024-02-16T10:46:22;11.20;99.90
34829;DHT22;21042;47.620;12.188;2024-02-16T10:48:48;11.20;99.90
34829;DHT22;21042;47.620;12.188;2024-02-16T10:51:16;11.20;99.90
34829;DHT22;21042;47.620;12.188;2024-02-16T10:53:46;11.10;99.90
34829;DHT22;21042;47.620;12.188;2024-02-16T10:56:13;11.10;99.90
34829;DHT22;21042;47.620;12.188;2024-02-16T10:58:40;11.00;99.90
34829;DHT22;21042;47.620;12.188;2024-02-16T11:01:08;11.00;99.90
34829;DHT22;21042;47.620;12.188;2024-02-16T11:03:37;11.00;99.90
34829;DHT22;21042;47.620;12.188;2024-02-16T11:06:14;11.00;99.90
34829;DHT22;21042;47.620;12.188;2024-02-16T11:08:41;11.20;99.90
34829;DHT22;21042;47.620;12.188;2024-02-16T11:11:08;11.40;99.90
34829;DHT22;21042;47.620;12.188;2024-02-16T11:13:38;11.70;99.90
34829;DHT22;21042;47.620;12.188;2024-02-16T11:16:06;12.10;99.90
34829;DHT22;21042;47.620;12.188;2024-02-16T11:18:37;12.30;99.90
34829;DHT22;21042;47.620;12.188;2024-02-16T11:21:04;12.50;99.90
34829;DHT22;21042;47.620;12.188;2024-02-16T11:23:32;12.60;99.90
34829;DHT22;21042;47.620;12.188;2024-02-16T11:26:01;12.70;99.90
34829;DHT22;21042;47.620;12.188;2024-02-16T11:28:32;12.70;99.90
34829;DHT22;21042;47.620;12.188;2024-02-16T11:31:00;12.80;99.90
34829;DHT22;21042;47.620;12.188;2024-02-16T11:33:28;12.90;99.90
34829;DHT22;21042;47.620;12.188;2024-02-16T11:35:56;13.00;99.90
34829;DHT22;21042;47.620;12.188;2024-02-16T11:38:24;13.20;99.90
34829;DHT22;21042;47.620;12.188;2024-02-16T11:40:54;13.30;99.90
34829;DHT22;21042;47.620;12.188;2024-02-16T11:43:21;13.40;99.90
34829;DHT22;21042;47.620;12.188;2024-02-16T11:45:49;13.50;99.90
34829;DHT22;21042;47.620;12.188;2024-02-16T11:48:19;13.40;99.90
34829;DHT22;21042;47.620;12.188;2024-02-16T11:50:47;13.50;99.90
34829;DHT22;21042;47.620;12.188;2024-02-16T11:53:15;13.50;99.90
34829;DHT22;21042;47.620;12.188;2024-02-16T11:55:45;13.40;99.90
34829;DHT22;21042;47.620;12.188;2024-02-16T11:58:13;13.30;99.90
34829;DHT22;21042;47.620;12.188;2024-02-16T12:00:40;13.20;99.90
34829;DHT22;21042;47.620;12.188;2024-02-16T12:03:07;13.20;99.90
34829;DHT22;21042;47.620;12.188;2024-02-16T12:05:34;13.30;99.90
34829;DHT22;21042;47.620;12.188;2024-02-16T12:08:01;13.40;99.90
34829;DHT22;21042;47.620;12.188;2024-02-16T12:10:28;13.60;99.50
34829;DHT22;21042;47.620;12.188;2024-02-16T12:12:55;13.70;99.90
34829;DHT22;21042;47.620;12.188;2024-02-16T12:15:27;13.90;99.90
34829;DHT22;21042;47.620;12.188;2024-02-16T12:18:00;14.00;99.80
34829;DHT22;21042;47.620;12.188;2024-02-16T12:20:30;14.10;99.70
34829;DHT22;21042;47.620;12.188;2024-02-16T12:23:10;14.20;99.20
34829;DHT22;21042;47.620;12.188;2024-02-16T12:25:36;14.40;99.40
34829;DHT22;21042;47.620;12.188;2024-02-16T12:28:03;14.30;99.20
34829;DHT22;21042;47.620;12.188;2024-02-16T12:30:30;14.50;98.20
34829;DHT22;21042;47.620;12.188;2024-02-16T12:32:58;14.60;97.90
34829;DHT22;21042;47.620;12.188;2024-02-16T12:35:25;14.70;97.70
34829;DHT22;21042;47.620;12.188;2024-02-16T12:37:51;14.80;97.60
34829;DHT22;21042;47.620;12.188;2024-02-16T12:40:18;14.80;98.50
34829;DHT22;21042;47.620;12.188;2024-02-16T12:42:45;14.90;97.60
34829;DHT22;21042;47.620;12.188;2024-02-16T12:45:14;14.90;97.10
34829;DHT22;21042;47.620;12.188;2024-02-16T12:47:42;15.00;97.80
34829;DHT22;21042;47.620;12.188;2024-02-16T12:50:09;15.10;97.70
34829;DHT22;21042;47.620;12.188;2024-02-16T12:52:36;15.10;97.60
34829;DHT22;21042;47.620;12.188;2024-02-16T12:55:16;15.20;97.30
34829;DHT22;21042;47.620;12.188;2024-02-16T12:57:43;15.20;97.40
34829;DHT22;21042;47.620;12.188;2024-02-16T13:00:11;15.30;97.50
34829;DHT22;21042;47.620;12.188;2024-02-16T13:02:38;15.30;96.30
34829;DHT22;21042;47.620;12.188;2024-02-16T13:05:05;15.30;96.50
34829;DHT22;21042;47.620;12.188;2024-02-16T13:07:32;15.30;96.50
34829;DHT22;21042;47.620;12.188;2024-02-16T13:09:59;15.30;96.10
34829;DHT22;21042;47.620;12.188;2024-02-16T13:12:26;15.30;96.30
34829;DHT22;21042;47.620;12.188;2024-02-16T13:14:54;15.40;96.50
34829;DHT22;21042;47.620;12.188;2024-02-16T13:17:20;15.40;95.70
34829;DHT22;21042;47.620;12.188;2024-02-16T13:19:47;15.30;95.60
34829;DHT22;21042;47.620;12.188;2024-02-16T13:22:14;15.30;95.20
34829;DHT22;21042;47.620;12.188;2024-02-16T13:24:40;15.30;95.30
34829;DHT22;21042;47.620;12.188;2024-02-16T13:27:08;15.30;94.90
34829;DHT22;21042;47.620;12.188;2024-02-16T13:29:35;15.30;94.40
34829;DHT22;21042;47.620;12.188;2024-02-16T13:32:03;15.30;94.40
34829;DHT22;21042;47.620;12.188;2024-02-16T13:34:30;15.30;94.20
34829;DHT22;21042;47.620;12.188;2024-02-16T13:36:57;15.30;94.30
34829;DHT22;21042;47.620;12.188;2024-02-16T13:39:24;15.40;94.30
34829;DHT22;21042;47.620;12.188;2024-02-16T13:41:52;15.40;93.60
34829;DHT22;21042;47.620;12.188;2024-02-16T13:44:19;15.50;92.90
34829;DHT22;21042;47.620;12.188;2024-02-16T13:46:46;15.60;92.80
34829;DHT22;21042;47.620;12.188;2024-02-16T13:49:16;15.70;92.80
34829;DHT22;21042;47.620;12.188;2024-02-16T13:51:42;15.60;92.90
34829;DHT22;21042;47.620;12.188;2024-02-16T13:54:09;15.70;92.60
34829;DHT22;21042;47.620;12.188;2024-02-16T13:56:36;15.80;93.10
34829;DHT22;21042;47.620;12.188;2024-02-16T13:59:05;15.80;93.90
34829;DHT22;21042;47.620;12.188;2024-02-16T14:01:33;15.90;94.10
34829;DHT22;21042;47.620;12.188;2024-02-16T14:04:01;15.90;94.40
34829;DHT22;21042;47.620;12.188;2024-02-16T14:06:28;15.80;94.00
34829;DHT22;21042;47.620;12.188;2024-02-16T14:08:55;15.90;94.40
34829;DHT22;21042;47.620;12.188;2024-02-16T14:11:23;15.90;94.40
34829;DHT22;21042;47.620;12.188;2024-02-16T14:13:50;16.00;94.30
34829;DHT22;21042;47.620;12.188;2024-02-16T14:16:17;16.20;95.10
34829;DHT22;21042;47.620;12.188;2024-02-16T14:18:44;16.20;94.20
34829;DHT22;21042;47.620;12.188;2024-02-16T14:21:11;16.30;93.60
34829;DHT22;21042;47.620;12.188;2024-02-16T14:23:38;16.30;93.10
34829;DHT22;21042;47.620;12.188;2024-02-16T14:26:05;16.20;93.20
34829;DHT22;21042;47.620;12.188;2024-02-16T14:28:31;16.20;93.00
34829;DHT22;21042;47.620;12.188;2024-02-16T14:30:58;16.30;92.90
34829;DHT22;21042;47.620;12.188;2024-02-16T14:33:25;16.30;92.70
34829;DHT22;21042;47.620;12.188;2024-02-16T14:36:00;16.30;93.00
34829;DHT22;21042;47.620;12.188;2024-02-16T14:38:27;16.30;93.40
34829;DHT22;21042;47.620;12.188;2024-02-16T14:40:54;16.30;93.00
34829;DHT22;21042;47.620;12.188;2024-02-16T14:43:21;16.30;93.60
34829;DHT22;21042;47.620;12.188;2024-02-16T14:45:48;16.30;93.30
34829;DHT22;21042;47.620;12.188;2024-02-16T14:48:14;16.20;93.40
34829;DHT22;21042;47.620;12.188;2024-02-16T14:50:41;16.20;93.00
34829;DHT22;21042;47.620;12.188;2024-02-16T14:53:08;16.20;92.90
34829;DHT22;21042;47.620;12.188;2024-02-16T14:55:35;16.20;93.10
34829;DHT22;21042;47.620;12.188;2024-02-16T14:58:01;16.10;94.00
34829;DHT22;21042;47.620;12.188;2024-02-16T15:00:28;16.10;94.40
34829;DHT22;21042;47.620;12.188;2024-02-16T15:02:55;16.00;94.40
34829;DHT22;21042;47.620;12.188;2024-02-16T15:05:21;16.00;94.50
34829;DHT22;21042;47.620;12.188;2024-02-16T15:07:48;16.00;93.70
34829;DHT22;21042;47.620;12.188;2024-02-16T15:10:16;16.00;94.00
34829;DHT22;21042;47.620;12.188;2024-02-16T15:12:43;16.10;94.10
34829;DHT22;21042;47.620;12.188;2024-02-16T15:15:10;16.20;94.30
34829;DHT22;21042;47.620;12.188;2024-02-16T15:17:38;16.20;93.90
34829;DHT22;21042;47.620;12.188;2024-02-16T15:20:06;16.20;94.30
34829;DHT22;21042;47.620;12.188;2024-02-16T15:22:33;16.20;94.20
34829;DHT22;21042;47.620;12.188;2024-02-16T15:25:13;16.20;94.00
34829;DHT22;21042;47.620;12.188;2024-02-16T15:27:40;16.30;94.00
34829;DHT22;21042;47.620;12.188;2024-02-16T15:30:08;16.20;94.30